sensor_id;sensor_type;location;lat;lon;timestamp;temperature;humidity
28959;DHT22;16066;0.000;0.000;2023-02-28T00:02:13;18.20;39.70
28959;DHT22;16066;0.000;0.000;2023-02-28T00:04:39;18.20;39.80
28959;DHT22;16066;0.000;0.000;2023-02-28T00:07:04;18.20;39.70
28959;DHT22;16066;0.000;0.000;2023-02-28T00:09:30;18.20;39.70
28959;DHT22;16066;0.000;0.000;2023-02-28T00:11:55;18.20;39.80
28959;DHT22;16066;0.000;0.000;2023-02-28T00:14:21;18.20;39.80
28959;DHT22;16066;0.000;0.000;2023-02-28T00:16:46;18.10;39.80
28959;DHT22;16066;0.000;0.000;2023-02-28T00:19:12;18.10;40.40
28959;DHT22;16066;0.000;0.000;2023-02-28T00:21:38;18.10;39.90
28959;DHT22;16066;0.000;0.000;2023-02-28T00:24:06;18.10;39.80
28959;DHT22;16066;0.000;0.000;2023-02-28T00:26:32;18.10;39.90
28959;DHT22;16066;0.000;0.000;2023-02-28T00:28:57;18.10;39.90
28959;DHT22;16066;0.000;0.000;2023-02-28T00:31:23;18.10;39.90
28959;DHT22;16066;0.000;0.000;2023-02-28T00:33:48;18.00;39.80
28959;DHT22;16066;0.000;0.000;2023-02-28T00:36:14;18.00;39.90
28959;DHT22;16066;0.000;0.000;2023-02-28T00:38:40;18.00;39.90
28959;DHT22;16066;0.000;0.000;2023-02-28T00:41:07;18.00;39.90
28959;DHT22;16066;0.000;0.000;2023-02-28T00:43:34;18.00;39.90
28959;DHT22;16066;0.000;0.000;2023-02-28T00:46:00;18.00;39.90
28959;DHT22;16066;0.000;0.000;2023-02-28T00:48:26;18.00;39.90
28959;DHT22;16066;0.000;0.000;2023-02-28T00:50:51;18.00;39.80
28959;DHT22;16066;0.000;0.000;2023-02-28T00:53:17;18.00;40.00
28959;DHT22;16066;0.000;0.000;2023-02-28T00:55:42;18.00;39.90
28959;DHT22;16066;0.000;0.000;2023-02-28T00:58:08;17.90;39.90
28959;DHT22;16066;0.000;0.000;2023-02-28T01:00:33;17.90;39.90
28959;DHT22;16066;0.000;0.000;2023-02-28T01:02:59;17.90;39.90
28959;DHT22;16066;0.000;0.000;2023-02-28T01:05:24;17.90;40.00
28959;DHT22;16066;0.000;0.000;2023-02-28T01:07:50;17.90;40.00
28959;DHT22;16066;0.000;0.000;2023-02-28T01:10:16;17.90;40.00
28959;DHT22;16066;0.000;0.000;2023-02-28T01:12:41;17.90;40.00
28959;DHT22;16066;0.000;0.000;2023-02-28T01:15:09;17.90;40.00
28959;DHT22;16066;0.000;0.000;2023-02-28T01:17:35;17.90;40.00
28959;DHT22;16066;0.000;0.000;2023-02-28T01:20:01;17.90;40.00
28959;DHT22;16066;0.000;0.000;2023-02-28T01:22:27;17.80;40.60
28959;DHT22;16066;0.000;0.000;2023-02-28T01:24:53;17.80;40.00
28959;DHT22;16066;0.000;0.000;2023-02-28T01:27:19;17.80;40.00
28959;DHT22;16066;0.000;0.000;2023-02-28T01:29:45;17.80;40.00
28959;DHT22;16066;0.000;0.000;2023-02-28T01:32:10;17.80;40.00
28959;DHT22;16066;0.000;0.000;2023-02-28T01:34:36;17.80;40.00
28959;DHT22;16066;0.000;0.000;2023-02-28T01:37:01;17.80;40.10
28959;DHT22;16066;0.000;0.000;2023-02-28T01:39:29;17.80;40.00
28959;DHT22;16066;0.000;0.000;2023-02-28T01:41:54;17.70;40.00
28959;DHT22;16066;0.000;0.000;2023-02-28T01:47:27;17.70;40.00
28959;DHT22;16066;0.000;0.000;2023-02-28T01:49:53;17.70;40.00
28959;DHT22;16066;0.000;0.000;2023-02-28T01:52:20;17.70;40.00
28959;DHT22;16066;0.000;0.000;2023-02-28T01:54:51;17.70;40.00
28959;DHT22;16066;0.000;0.000;2023-02-28T01:57:22;17.70;40.00
28959;DHT22;16066;0.000;0.000;2023-02-28T01:59:54;17.70;40.00
28959;DHT22;16066;0.000;0.000;2023-02-28T02:02:23;17.70;40.10
28959;DHT22;16066;0.000;0.000;2023-02-28T02:05:00;17.70;40.00
28959;DHT22;16066;0.000;0.000;2023-02-28T02:07:31;17.70;40.10
28959;DHT22;16066;0.000;0.000;2023-02-28T02:10:18;17.60;40.00
28959;DHT22;16066;0.000;0.000;2023-02-28T02:15:49;17.60;40.00
28959;DHT22;16066;0.000;0.000;2023-02-28T02:18:32;17.60;40.00
28959;DHT22;16066;0.000;0.000;2023-02-28T02:28:46;17.50;40.00
28959;DHT22;16066;0.000;0.000;2023-02-28T02:31:46;17.60;40.10
28959;DHT22;16066;0.000;0.000;2023-02-28T02:34:28;17.50;40.10
28959;DHT22;16066;0.000;0.000;2023-02-28T02:37:15;17.50;40.10
28959;DHT22;16066;0.000;0.000;2023-02-28T02:39:48;17.50;40.00
28959;DHT22;16066;0.000;0.000;2023-02-28T02:42:31;17.50;40.10
28959;DHT22;16066;0.000;0.000;2023-02-28T02:45:15;17.50;40.10
28959;DHT22;16066;0.000;0.000;2023-02-28T02:47:43;17.50;40.10
28959;DHT22;16066;0.000;0.000;2023-02-28T02:50:14;17.50;40.10
28959;DHT22;16066;0.000;0.000;2023-02-28T02:52:46;17.40;40.00
28959;DHT22;16066;0.000;0.000;2023-02-28T02:55:14;17.50;40.20
28959;DHT22;16066;0.000;0.000;2023-02-28T02:57:51;17.50;40.10
28959;DHT22;16066;0.000;0.000;2023-02-28T03:00:20;17.50;40.20
28959;DHT22;16066;0.000;0.000;2023-02-28T03:02:48;17.40;40.10
28959;DHT22;16066;0.000;0.000;2023-02-28T03:05:24;17.40;40.10
28959;DHT22;16066;0.000;0.000;2023-02-28T03:07:51;17.40;40.20
28959;DHT22;16066;0.000;0.000;2023-02-28T03:10:48;17.40;40.20
28959;DHT22;16066;0.000;0.000;2023-02-28T03:13:26;17.40;40.20
28959;DHT22;16066;0.000;0.000;2023-02-28T03:19:24;17.40;40.20
28959;DHT22;16066;0.000;0.000;2023-02-28T03:27:59;17.40;40.20
28959;DHT22;16066;0.000;0.000;2023-02-28T03:35:49;17.30;40.10
28959;DHT22;16066;0.000;0.000;2023-02-28T03:41:14;17.30;40.10
28959;DHT22;16066;0.000;0.000;2023-02-28T03:43:45;17.30;40.20
28959;DHT22;16066;0.000;0.000;2023-02-28T03:46:15;17.30;40.10
28959;DHT22;16066;0.000;0.000;2023-02-28T03:48:49;17.30;40.10
28959;DHT22;16066;0.000;0.000;2023-02-28T03:51:19;17.30;40.10
28959;DHT22;16066;0.000;0.000;2023-02-28T03:54:09;17.30;40.10
28959;DHT22;16066;0.000;0.000;2023-02-28T03:56:40;17.30;40.20
28959;DHT22;16066;0.000;0.000;2023-02-28T03:59:28;17.20;40.70
28959;DHT22;16066;0.000;0.000;2023-02-28T04:01:54;17.30;40.20
28959;DHT22;16066;0.000;0.000;2023-02-28T04:04:21;17.30;40.20
28959;DHT22;16066;0.000;0.000;2023-02-28T04:06:52;17.30;40.20
28959;DHT22;16066;0.000;0.000;2023-02-28T04:09:18;17.30;40.20
28959;DHT22;16066;0.000;0.000;2023-02-28T04:11:50;17.20;40.20
28959;DHT22;16066;0.000;0.000;2023-02-28T04:14:21;17.20;40.20
28959;DHT22;16066;0.000;0.000;2023-02-28T04:16:47;17.20;40.20
28959;DHT22;16066;0.000;0.000;2023-02-28T04:19:13;17.20;40.20
28959;DHT22;16066;0.000;0.000;2023-02-28T04:21:44;17.20;40.20
28959;DHT22;16066;0.000;0.000;2023-02-28T04:24:14;17.20;40.20
28959;DHT22;16066;0.000;0.000;2023-02-28T04:26:41;17.20;40.20
28959;DHT22;16066;0.000;0.000;2023-02-28T04:29:09;17.20;40.20
28959;DHT22;16066;0.000;0.000;2023-02-28T04:31:35;17.20;40.20
28959;DHT22;16066;0.000;0.000;2023-02-28T04:34:01;17.20;40.20
28959;DHT22;16066;0.000;0.000;2023-02-28T04:36:27;17.20;40.20
28959;DHT22;16066;0.000;0.000;2023-02-28T04:38:53;17.10;40.20
28959;DHT22;16066;0.000;0.000;2023-02-28T04:41:19;17.20;40.30
28959;DHT22;16066;0.000;0.000;2023-02-28T04:43:44;17.20;40.20
28959;DHT22;16066;0.000;0.000;2023-02-28T04:46:10;17.10;40.10
28959;DHT22;16066;0.000;0.000;2023-02-28T04:48:37;17.10;40.10
28959;DHT22;16066;0.000;0.000;2023-02-28T04:51:05;17.10;40.20
28959;DHT22;16066;0.000;0.000;2023-02-28T04:53:31;17.10;40.20
28959;DHT22;16066;0.000;0.000;2023-02-28T04:55:57;17.10;40.20
28959;DHT22;16066;0.000;0.000;2023-02-28T04:58:23;17.10;40.20
28959;DHT22;16066;0.000;0.000;2023-02-28T05:00:52;17.10;40.20
28959;DHT22;16066;0.000;0.000;2023-02-28T05:03:18;17.10;40.20
28959;DHT22;16066;0.000;0.000;2023-02-28T05:05:44;17.10;40.20
28959;DHT22;16066;0.000;0.000;2023-02-28T05:08:10;17.10;40.80
28959;DHT22;16066;0.000;0.000;2023-02-28T05:10:36;17.10;40.30
28959;DHT22;16066;0.000;0.000;2023-02-28T05:13:01;17.10;40.30
28959;DHT22;16066;0.000;0.000;2023-02-28T05:15:27;17.10;40.00
28959;DHT22;16066;0.000;0.000;2023-02-28T05:17:53;17.20;40.00
28959;DHT22;16066;0.000;0.000;2023-02-28T05:20:18;17.40;39.90
28959;DHT22;16066;0.000;0.000;2023-02-28T05:22:44;17.50;39.80
28959;DHT22;16066;0.000;0.000;2023-02-28T05:25:17;17.50;39.80
28959;DHT22;16066;0.000;0.000;2023-02-28T05:27:43;17.60;39.80
28959;DHT22;16066;0.000;0.000;2023-02-28T05:30:10;17.70;39.80
28959;DHT22;16066;0.000;0.000;2023-02-28T05:32:38;17.70;39.70
28959;DHT22;16066;0.000;0.000;2023-02-28T05:35:04;17.80;39.60
28959;DHT22;16066;0.000;0.000;2023-02-28T05:37:30;17.90;39.70
28959;DHT22;16066;0.000;0.000;2023-02-28T05:39:55;17.90;39.60
28959;DHT22;16066;0.000;0.000;2023-02-28T05:42:21;18.00;39.60
28959;DHT22;16066;0.000;0.000;2023-02-28T05:44:47;18.10;39.50
28959;DHT22;16066;0.000;0.000;2023-02-28T05:47:12;18.20;39.50
28959;DHT22;16066;0.000;0.000;2023-02-28T05:49:41;18.30;39.40
28959;DHT22;16066;0.000;0.000;2023-02-28T05:52:06;18.40;39.30
28959;DHT22;16066;0.000;0.000;2023-02-28T05:54:32;18.50;39.20
28959;DHT22;16066;0.000;0.000;2023-02-28T05:56:57;18.50;39.10
28959;DHT22;16066;0.000;0.000;2023-02-28T05:59:23;18.60;39.10
28959;DHT22;16066;0.000;0.000;2023-02-28T06:01:48;18.70;39.10
28959;DHT22;16066;0.000;0.000;2023-02-28T06:04:16;18.80;39.40
28959;DHT22;16066;0.000;0.000;2023-02-28T06:06:48;18.90;39.40
28959;DHT22;16066;0.000;0.000;2023-02-28T06:09:14;19.00;39.30
28959;DHT22;16066;0.000;0.000;2023-02-28T06:11:40;19.10;39.20
28959;DHT22;16066;0.000;0.000;2023-02-28T06:14:06;19.20;38.90
28959;DHT22;16066;0.000;0.000;2023-02-28T06:16:33;19.30;38.90
28959;DHT22;16066;0.000;0.000;2023-02-28T06:19:02;19.40;38.90
28959;DHT22;16066;0.000;0.000;2023-02-28T06:21:28;19.40;38.70
28959;DHT22;16066;0.000;0.000;2023-02-28T06:23:55;19.50;38.50
28959;DHT22;16066;0.000;0.000;2023-02-28T06:26:21;19.50;38.10
28959;DHT22;16066;0.000;0.000;2023-02-28T06:28:47;19.60;38.20
28959;DHT22;16066;0.000;0.000;2023-02-28T06:31:15;19.70;37.90
28959;DHT22;16066;0.000;0.000;2023-02-28T06:33:41;19.70;37.60
28959;DHT22;16066;0.000;0.000;2023-02-28T06:36:08;19.70;37.40
28959;DHT22;16066;0.000;0.000;2023-02-28T06:38:34;19.70;37.30
28959;DHT22;16066;0.000;0.000;2023-02-28T06:41:01;19.70;37.50
28959;DHT22;16066;0.000;0.000;2023-02-28T06:43:33;19.80;38.20
28959;DHT22;16066;0.000;0.000;2023-02-28T06:46:01;19.80;37.60
28959;DHT22;16066;0.000;0.000;2023-02-28T06:48:27;19.80;37.70
28959;DHT22;16066;0.000;0.000;2023-02-28T06:51:02;19.80;37.40
28959;DHT22;16066;0.000;0.000;2023-02-28T06:53:27;19.80;37.20
28959;DHT22;16066;0.000;0.000;2023-02-28T06:55:53;19.70;37.10
28959;DHT22;16066;0.000;0.000;2023-02-28T06:58:18;19.70;37.20
28959;DHT22;16066;0.000;0.000;2023-02-28T07:00:45;19.80;37.50
28959;DHT22;16066;0.000;0.000;2023-02-28T07:03:12;19.70;37.50
28959;DHT22;16066;0.000;0.000;2023-02-28T07:05:38;19.70;37.80
28959;DHT22;16066;0.000;0.000;2023-02-28T07:08:05;19.70;37.80
28959;DHT22;16066;0.000;0.000;2023-02-28T07:10:33;19.70;38.00
28959;DHT22;16066;0.000;0.000;2023-02-28T07:13:00;19.70;38.10
28959;DHT22;16066;0.000;0.000;2023-02-28T07:15:25;19.70;38.20
28959;DHT22;16066;0.000;0.000;2023-02-28T07:17:51;19.70;38.10
28959;DHT22;16066;0.000;0.000;2023-02-28T07:20:16;19.60;38.10
28959;DHT22;16066;0.000;0.000;2023-02-28T07:22:42;19.60;38.20
28959;DHT22;16066;0.000;0.000;2023-02-28T07:25:09;19.60;38.30
28959;DHT22;16066;0.000;0.000;2023-02-28T07:27:34;19.50;38.10
28959;DHT22;16066;0.000;0.000;2023-02-28T07:30:00;19.50;38.10
28959;DHT22;16066;0.000;0.000;2023-02-28T07:32:27;19.50;38.00
28959;DHT22;16066;0.000;0.000;2023-02-28T07:34:53;19.50;38.10
28959;DHT22;16066;0.000;0.000;2023-02-28T07:37:19;19.50;37.90
28959;DHT22;16066;0.000;0.000;2023-02-28T07:39:45;19.50;37.90
28959;DHT22;16066;0.000;0.000;2023-02-28T07:42:10;19.40;37.80
28959;DHT22;16066;0.000;0.000;2023-02-28T07:44:40;19.50;38.00
28959;DHT22;16066;0.000;0.000;2023-02-28T07:47:07;19.40;38.00
28959;DHT22;16066;0.000;0.000;2023-02-28T07:49:35;19.40;38.00
28959;DHT22;16066;0.000;0.000;2023-02-28T07:52:05;19.50;38.10
28959;DHT22;16066;0.000;0.000;2023-02-28T07:54:30;19.50;38.10
28959;DHT22;16066;0.000;0.000;2023-02-28T07:56:56;19.50;38.10
28959;DHT22;16066;0.000;0.000;2023-02-28T07:59:22;19.50;38.10
28959;DHT22;16066;0.000;0.000;2023-02-28T08:01:47;19.50;37.90
28959;DHT22;16066;0.000;0.000;2023-02-28T08:04:16;19.50;38.00
28959;DHT22;16066;0.000;0.000;2023-02-28T08:06:41;19.50;38.00
28959;DHT22;16066;0.000;0.000;2023-02-28T08:09:07;19.50;37.90
28959;DHT22;16066;0.000;0.000;2023-02-28T08:11:33;19.50;38.10
28959;DHT22;16066;0.000;0.000;2023-02-28T08:13:58;19.50;38.00
28959;DHT22;16066;0.000;0.000;2023-02-28T08:16:24;19.50;37.90
28959;DHT22;16066;0.000;0.000;2023-02-28T08:18:51;19.50;37.70
28959;DHT22;16066;0.000;0.000;2023-02-28T08:21:17;19.50;37.80
28959;DHT22;16066;0.000;0.000;2023-02-28T08:23:43;19.40;38.20
28959;DHT22;16066;0.000;0.000;2023-02-28T08:26:08;19.40;37.70
28959;DHT22;16066;0.000;0.000;2023-02-28T08:28:34;19.40;37.50
28959;DHT22;16066;0.000;0.000;2023-02-28T08:31:00;19.30;37.50
28959;DHT22;16066;0.000;0.000;2023-02-28T08:33:27;19.40;38.10
28959;DHT22;16066;0.000;0.000;2023-02-28T08:35:56;19.40;37.80
28959;DHT22;16066;0.000;0.000;2023-02-28T08:38:22;19.40;37.80
28959;DHT22;16066;0.000;0.000;2023-02-28T08:40:48;19.40;38.10
28959;DHT22;16066;0.000;0.000;2023-02-28T08:43:13;19.40;37.60
28959;DHT22;16066;0.000;0.000;2023-02-28T08:45:39;19.30;37.50
28959;DHT22;16066;0.000;0.000;2023-02-28T08:48:05;19.30;37.50
28959;DHT22;16066;0.000;0.000;2023-02-28T08:50:31;19.30;37.30
28959;DHT22;16066;0.000;0.000;2023-02-28T08:52:56;19.20;37.10
28959;DHT22;16066;0.000;0.000;2023-02-28T08:55:22;19.20;37.00
28959;DHT22;16066;0.000;0.000;2023-02-28T08:57:47;19.20;37.00
28959;DHT22;16066;0.000;0.000;2023-02-28T09:00:13;19.20;37.00
28959;DHT22;16066;0.000;0.000;2023-02-28T09:02:40;19.20;36.90
28959;DHT22;16066;0.000;0.000;2023-02-28T09:05:06;19.20;36.80
28959;DHT22;16066;0.000;0.000;2023-02-28T09:07:33;19.10;36.70
28959;DHT22;16066;0.000;0.000;2023-02-28T09:09:58;19.10;36.70
28959;DHT22;16066;0.000;0.000;2023-02-28T09:12:25;19.10;37.00
28959;DHT22;16066;0.000;0.000;2023-02-28T09:14:51;19.10;37.00
28959;DHT22;16066;0.000;0.000;2023-02-28T09:17:17;19.10;36.60
28959;DHT22;16066;0.000;0.000;2023-02-28T09:19:43;19.10;36.80
28959;DHT22;16066;0.000;0.000;2023-02-28T09:22:10;19.00;36.70
28959;DHT22;16066;0.000;0.000;2023-02-28T09:24:37;19.10;36.80
28959;DHT22;16066;0.000;0.000;2023-02-28T09:27:03;19.00;36.70
28959;DHT22;16066;0.000;0.000;2023-02-28T09:29:29;19.00;37.20
28959;DHT22;16066;0.000;0.000;2023-02-28T09:31:54;19.00;36.60
28959;DHT22;16066;0.000;0.000;2023-02-28T09:34:21;19.00;36.60
28959;DHT22;16066;0.000;0.000;2023-02-28T09:36:46;19.00;36.50
28959;DHT22;16066;0.000;0.000;2023-02-28T09:39:12;19.00;36.60
28959;DHT22;16066;0.000;0.000;2023-02-28T09:41:43;18.90;36.30
28959;DHT22;16066;0.000;0.000;2023-02-28T09:44:40;18.90;36.20
28959;DHT22;16066;0.000;0.000;2023-02-28T09:49:47;18.90;36.20
28959;DHT22;16066;0.000;0.000;2023-02-28T09:52:23;18.90;36.20
28959;DHT22;16066;0.000;0.000;2023-02-28T09:54:49;18.90;36.30
28959;DHT22;16066;0.000;0.000;2023-02-28T09:57:22;18.90;36.20
28959;DHT22;16066;0.000;0.000;2023-02-28T10:05:41;18.90;36.00
28959;DHT22;16066;0.000;0.000;2023-02-28T10:10:45;18.90;35.70
28959;DHT22;16066;0.000;0.000;2023-02-28T10:13:24;18.90;35.80
28959;DHT22;16066;0.000;0.000;2023-02-28T10:15:57;18.90;35.60
28959;DHT22;16066;0.000;0.000;2023-02-28T10:18:30;18.90;36.20
28959;DHT22;16066;0.000;0.000;2023-02-28T10:20:56;18.90;35.60
28959;DHT22;16066;0.000;0.000;2023-02-28T10:23:28;18.90;35.50
28959;DHT22;16066;0.000;0.000;2023-02-28T10:26:08;18.90;35.60
28959;DHT22;16066;0.000;0.000;2023-02-28T10:28:35;18.90;35.60
28959;DHT22;16066;0.000;0.000;2023-02-28T10:31:01;18.90;35.70
28959;DHT22;16066;0.000;0.000;2023-02-28T10:33:34;18.90;35.90
28959;DHT22;16066;0.000;0.000;2023-02-28T10:36:00;18.90;36.00
28959;DHT22;16066;0.000;0.000;2023-02-28T10:38:33;18.90;35.90
28959;DHT22;16066;0.000;0.000;2023-02-28T10:43:38;19.00;35.90
28959;DHT22;16066;0.000;0.000;2023-02-28T10:48:45;19.00;35.90
28959;DHT22;16066;0.000;0.000;2023-02-28T10:51:16;19.00;35.90
28959;DHT22;16066;0.000;0.000;2023-02-28T11:02:02;19.10;36.30
28959;DHT22;16066;0.000;0.000;2023-02-28T11:07:18;19.20;36.20
28959;DHT22;16066;0.000;0.000;2023-02-28T11:09:50;19.20;35.90
28959;DHT22;16066;0.000;0.000;2023-02-28T11:15:27;19.20;36.10
28959;DHT22;16066;0.000;0.000;2023-02-28T11:20:34;19.20;36.00
28959;DHT22;16066;0.000;0.000;2023-02-28T11:23:02;19.30;36.10
28959;DHT22;16066;0.000;0.000;2023-02-28T11:25:33;19.30;36.20
28959;DHT22;16066;0.000;0.000;2023-02-28T11:28:22;19.20;36.30
28959;DHT22;16066;0.000;0.000;2023-02-28T11:33:31;19.20;36.30
28959;DHT22;16066;0.000;0.000;2023-02-28T11:36:03;19.20;36.10
28959;DHT22;16066;0.000;0.000;2023-02-28T11:38:31;19.20;36.40
28959;DHT22;16066;0.000;0.000;2023-02-28T11:41:05;19.20;36.40
28959;DHT22;16066;0.000;0.000;2023-02-28T11:43:42;19.20;36.40
28959;DHT22;16066;0.000;0.000;2023-02-28T11:46:27;19.20;36.50
28959;DHT22;16066;0.000;0.000;2023-02-28T11:49:02;19.20;36.40
28959;DHT22;16066;0.000;0.000;2023-02-28T11:51:51;19.20;36.20
28959;DHT22;16066;0.000;0.000;2023-02-28T11:57:38;19.20;36.10
28959;DHT22;16066;0.000;0.000;2023-02-28T12:03:03;19.30;36.10
28959;DHT22;16066;0.000;0.000;2023-02-28T12:05:45;19.30;36.40
28959;DHT22;16066;0.000;0.000;2023-02-28T12:08:26;19.40;36.40
28959;DHT22;16066;0.000;0.000;2023-02-28T12:24:55;19.60;37.00
28959;DHT22;16066;0.000;0.000;2023-02-28T12:27:28;19.60;37.00
28959;DHT22;16066;0.000;0.000;2023-02-28T12:30:04;19.60;37.00
28959;DHT22;16066;0.000;0.000;2023-02-28T12:32:36;19.60;37.00
28959;DHT22;16066;0.000;0.000;2023-02-28T12:42:50;19.70;36.60
28959;DHT22;16066;0.000;0.000;2023-02-28T12:45:23;19.70;36.10
28959;DHT22;16066;0.000;0.000;2023-02-28T12:48:01;19.70;36.10
28959;DHT22;16066;0.000;0.000;2023-02-28T12:50:29;19.70;35.90
28959;DHT22;16066;0.000;0.000;2023-02-28T12:53:23;19.70;35.60
28959;DHT22;16066;0.000;0.000;2023-02-28T12:58:54;19.80;35.60
28959;DHT22;16066;0.000;0.000;2023-02-28T13:01:45;19.80;35.60
28959;DHT22;16066;0.000;0.000;2023-02-28T13:07:20;19.90;34.10
28959;DHT22;16066;0.000;0.000;2023-02-28T13:09:54;19.80;33.60
28959;DHT22;16066;0.000;0.000;2023-02-28T13:12:21;19.80;33.30
28959;DHT22;16066;0.000;0.000;2023-02-28T13:14:48;19.80;34.20
28959;DHT22;16066;0.000;0.000;2023-02-28T13:17:20;19.90;34.50
28959;DHT22;16066;0.000;0.000;2023-02-28T13:24:55;20.10;35.00
28959;DHT22;16066;0.000;0.000;2023-02-28T13:27:34;20.20;35.20
28959;DHT22;16066;0.000;0.000;2023-02-28T13:30:01;20.30;35.20
28959;DHT22;16066;0.000;0.000;2023-02-28T13:32:33;20.30;35.30
28959;DHT22;16066;0.000;0.000;2023-02-28T13:39:51;20.40;35.60
28959;DHT22;16066;0.000;0.000;2023-02-28T13:47:39;20.50;36.70
28959;DHT22;16066;0.000;0.000;2023-02-28T14:04:44;20.90;36.20
28959;DHT22;16066;0.000;0.000;2023-02-28T14:07:28;20.90;36.10
28959;DHT22;16066;0.000;0.000;2023-02-28T14:10:05;21.00;36.00
28959;DHT22;16066;0.000;0.000;2023-02-28T14:12:53;21.00;36.00
28959;DHT22;16066;0.000;0.000;2023-02-28T14:17:56;21.30;35.80
28959;DHT22;16066;0.000;0.000;2023-02-28T14:20:27;21.40;35.50
28959;DHT22;16066;0.000;0.000;2023-02-28T14:25:55;21.60;35.20
28959;DHT22;16066;0.000;0.000;2023-02-28T14:28:35;21.70;35.20
28959;DHT22;16066;0.000;0.000;2023-02-28T14:31:23;21.70;35.20
28959;DHT22;16066;0.000;0.000;2023-02-28T14:36:52;21.60;35.20
28959;DHT22;16066;0.000;0.000;2023-02-28T14:39:23;21.70;35.20
28959;DHT22;16066;0.000;0.000;2023-02-28T14:41:50;21.60;35.20
28959;DHT22;16066;0.000;0.000;2023-02-28T14:44:19;21.60;35.10
28959;DHT22;16066;0.000;0.000;2023-02-28T14:46:48;21.60;34.90
28959;DHT22;16066;0.000;0.000;2023-02-28T14:52:19;21.60;34.60
28959;DHT22;16066;0.000;0.000;2023-02-28T14:54:46;21.70;34.60
28959;DHT22;16066;0.000;0.000;2023-02-28T14:57:25;21.70;34.50
28959;DHT22;16066;0.000;0.000;2023-02-28T15:02:43;21.70;33.10
28959;DHT22;16066;0.000;0.000;2023-02-28T15:07:48;21.70;31.20
28959;DHT22;16066;0.000;0.000;2023-02-28T15:10:21;21.70;31.00
28959;DHT22;16066;0.000;0.000;2023-02-28T15:12:56;21.70;31.20
28959;DHT22;16066;0.000;0.000;2023-02-28T15:18:03;21.70;31.10
28959;DHT22;16066;0.000;0.000;2023-02-28T15:20:31;21.60;30.90
28959;DHT22;16066;0.000;0.000;2023-02-28T15:22:58;21.60;31.10
28959;DHT22;16066;0.000;0.000;2023-02-28T15:25:24;21.60;30.90
28959;DHT22;16066;0.000;0.000;2023-02-28T15:27:54;21.60;31.20
28959;DHT22;16066;0.000;0.000;2023-02-28T15:30:29;21.60;31.20
28959;DHT22;16066;0.000;0.000;2023-02-28T15:35:37;21.50;31.10
28959;DHT22;16066;0.000;0.000;2023-02-28T15:38:18;21.40;31.00
28959;DHT22;16066;0.000;0.000;2023-02-28T15:40:46;21.40;31.20
28959;DHT22;16066;0.000;0.000;2023-02-28T15:43:33;21.30;31.10
28959;DHT22;16066;0.000;0.000;2023-02-28T15:46:10;21.30;31.30
28959;DHT22;16066;0.000;0.000;2023-02-28T15:48:45;21.10;31.20
28959;DHT22;16066;0.000;0.000;2023-02-28T15:51:18;21.10;31.40
28959;DHT22;16066;0.000;0.000;2023-02-28T15:53:50;21.00;31.40
28959;DHT22;16066;0.000;0.000;2023-02-28T15:56:31;20.90;31.50
28959;DHT22;16066;0.000;0.000;2023-02-28T15:59:05;20.80;31.60
28959;DHT22;16066;0.000;0.000;2023-02-28T16:01:34;20.70;31.80
28959;DHT22;16066;0.000;0.000;2023-02-28T16:04:03;20.60;31.90
28959;DHT22;16066;0.000;0.000;2023-02-28T16:09:10;20.40;32.10
28959;DHT22;16066;0.000;0.000;2023-02-28T16:11:40;20.30;32.20
28959;DHT22;16066;0.000;0.000;2023-02-28T16:14:07;20.30;32.30
28959;DHT22;16066;0.000;0.000;2023-02-28T16:16:34;20.10;32.20
28959;DHT22;16066;0.000;0.000;2023-02-28T16:19:00;20.10;32.30
28959;DHT22;16066;0.000;0.000;2023-02-28T16:21:25;20.00;32.40
28959;DHT22;16066;0.000;0.000;2023-02-28T16:23:51;19.90;32.40
28959;DHT22;16066;0.000;0.000;2023-02-28T16:26:22;19.90;32.50
28959;DHT22;16066;0.000;0.000;2023-02-28T16:28:49;19.90;32.60
28959;DHT22;16066;0.000;0.000;2023-02-28T16:31:15;19.80;32.70
28959;DHT22;16066;0.000;0.000;2023-02-28T16:33:42;19.70;33.10
28959;DHT22;16066;0.000;0.000;2023-02-28T16:36:17;19.70;33.30
28959;DHT22;16066;0.000;0.000;2023-02-28T16:38:43;19.80;34.10
28959;DHT22;16066;0.000;0.000;2023-02-28T16:41:12;19.80;34.40
28959;DHT22;16066;0.000;0.000;2023-02-28T16:43:41;19.90;34.70
28959;DHT22;16066;0.000;0.000;2023-02-28T16:46:10;19.90;34.50
28959;DHT22;16066;0.000;0.000;2023-02-28T16:48:36;19.90;34.20
28959;DHT22;16066;0.000;0.000;2023-02-28T16:51:02;19.90;34.20
28959;DHT22;16066;0.000;0.000;2023-02-28T16:53:29;19.90;34.20
28959;DHT22;16066;0.000;0.000;2023-02-28T16:55:55;19.90;34.60
28959;DHT22;16066;0.000;0.000;2023-02-28T16:58:21;20.00;34.50
28959;DHT22;16066;0.000;0.000;2023-02-28T17:00:48;20.00;34.50
28959;DHT22;16066;0.000;0.000;2023-02-28T17:03:26;20.00;34.60
28959;DHT22;16066;0.000;0.000;2023-02-28T17:05:52;20.10;34.90
28959;DHT22;16066;0.000;0.000;2023-02-28T17:08:17;20.10;34.90
28959;DHT22;16066;0.000;0.000;2023-02-28T17:10:43;20.10;35.20
28959;DHT22;16066;0.000;0.000;2023-02-28T17:13:09;20.10;35.20
28959;DHT22;16066;0.000;0.000;2023-02-28T17:15:35;20.10;35.10
28959;DHT22;16066;0.000;0.000;2023-02-28T17:18:01;20.10;35.00
28959;DHT22;16066;0.000;0.000;2023-02-28T17:20:27;20.20;35.20
28959;DHT22;16066;0.000;0.000;2023-02-28T17:22:53;20.10;35.00
28959;DHT22;16066;0.000;0.000;2023-02-28T17:25:20;20.10;35.00
28959;DHT22;16066;0.000;0.000;2023-02-28T17:27:46;20.10;35.10
28959;DHT22;16066;0.000;0.000;2023-02-28T17:32:38;20.10;35.00
28959;DHT22;16066;0.000;0.000;2023-02-28T17:35:03;20.10;35.00
28959;DHT22;16066;0.000;0.000;2023-02-28T17:37:29;20.10;35.00
28959;DHT22;16066;0.000;0.000;2023-02-28T17:39:54;20.10;35.20
28959;DHT22;16066;0.000;0.000;2023-02-28T17:42:20;20.10;35.20
28959;DHT22;16066;0.000;0.000;2023-02-28T17:44:45;20.10;35.20
28959;DHT22;16066;0.000;0.000;2023-02-28T17:47:12;20.10;35.20
28959;DHT22;16066;0.000;0.000;2023-02-28T17:49:38;20.00;35.30
28959;DHT22;16066;0.000;0.000;2023-02-28T17:52:03;20.00;35.70
28959;DHT22;16066;0.000;0.000;2023-02-28T17:54:29;20.10;36.00
28959;DHT22;16066;0.000;0.000;2023-02-28T17:56:54;20.10;36.80
28959;DHT22;16066;0.000;0.000;2023-02-28T17:59:20;20.10;37.00
28959;DHT22;16066;0.000;0.000;2023-02-28T18:01:46;20.10;36.90
28959;DHT22;16066;0.000;0.000;2023-02-28T18:04:11;20.10;36.60
28959;DHT22;16066;0.000;0.000;2023-02-28T18:06:39;20.10;36.60
28959;DHT22;16066;0.000;0.000;2023-02-28T18:09:12;20.10;36.60
28959;DHT22;16066;0.000;0.000;2023-02-28T18:11:38;20.10;36.50
28959;DHT22;16066;0.000;0.000;2023-02-28T18:14:07;20.10;36.60
28959;DHT22;16066;0.000;0.000;2023-02-28T18:16:32;20.10;36.60
28959;DHT22;16066;0.000;0.000;2023-02-28T18:18:58;20.10;36.70
28959;DHT22;16066;0.000;0.000;2023-02-28T18:21:23;20.10;36.80
28959;DHT22;16066;0.000;0.000;2023-02-28T18:23:49;20.10;36.70
28959;DHT22;16066;0.000;0.000;2023-02-28T18:26:17;20.10;36.50
28959;DHT22;16066;0.000;0.000;2023-02-28T18:28:43;20.00;36.40
28959;DHT22;16066;0.000;0.000;2023-02-28T18:31:11;20.00;36.20
28959;DHT22;16066;0.000;0.000;2023-02-28T18:33:38;20.00;36.20
28959;DHT22;16066;0.000;0.000;2023-02-28T18:36:04;20.00;36.20